createdAt,value
2016-03-02T14:36:24.591Z,995.83
2016-03-02T14:37:24.484Z,995.82
2016-03-02T14:38:24.502Z,995.76
2016-03-02T14:39:24.505Z,995.75
2016-03-02T14:40:24.524Z,995.73
2016-03-02T14:41:24.791Z,995.77
2016-03-02T14:42:24.560Z,995.73
2016-03-02T14:43:24.813Z,995.7
2016-03-02T14:44:24.596Z,995.69
2016-03-02T14:45:24.616Z,995.68
2016-03-02T14:46:37.602Z,995.7
2016-03-02T14:47:43.886Z,995.77
2016-03-02T14:48:24.654Z,995.73
2016-03-02T14:49:50.353Z,995.68
2016-03-02T14:50:24.700Z,995.75
2016-03-02T14:51:24.702Z,995.69
2016-03-02T14:52:37.455Z,995.76
2016-03-02T14:53:24.739Z,995.73
2016-03-02T14:54:34.680Z,995.75
2016-03-02T14:55:34.401Z,995.75
2016-03-02T14:56:34.435Z,995.76
2016-03-02T14:57:34.437Z,995.7
2016-03-02T14:58:34.457Z,995.66
2016-03-02T14:59:34.473Z,995.74
2016-03-02T15:00:34.492Z,995.69
2016-03-02T15:01:34.542Z,995.67
2016-03-02T15:02:34.513Z,995.63
2016-03-02T15:03:47.407Z,995.66
2016-03-02T15:04:34.581Z,995.6
2016-03-02T15:05:53.764Z,995.61
2016-03-02T15:06:47.312Z,995.65
2016-03-02T15:08:34.662Z,995.59
2016-03-02T15:09:34.681Z,995.59
2016-03-02T15:10:34.698Z,995.6
2016-03-02T15:11:34.670Z,995.6
2016-03-02T15:12:34.704Z,995.52
2016-03-02T15:13:34.707Z,995.56
2016-03-02T15:14:34.726Z,995.49
2016-03-02T15:15:34.744Z,995.46
2016-03-02T15:16:47.496Z,995.47
2016-03-02T15:17:35.375Z,995.43
2016-03-02T15:19:00.486Z,995.46
2016-03-02T15:19:37.833Z,995.4
2016-03-02T15:20:34.819Z,995.44
2016-03-02T15:22:00.525Z,995.44
2016-03-02T15:22:47.591Z,995.39
2016-03-02T15:23:34.891Z,995.38
2016-03-02T15:24:34.893Z,995.42
2016-03-02T15:25:37.989Z,995.43
2016-03-02T15:26:47.664Z,995.39
2016-03-02T15:27:47.682Z,995.4
2016-03-02T15:28:47.685Z,995.44
2016-03-02T15:29:48.313Z,995.46
2016-03-02T15:30:47.737Z,995.46
2016-03-02T15:32:00.474Z,995.48
2016-03-02T15:33:00.493Z,995.43
2016-03-02T15:34:13.451Z,995.48
2016-03-02T15:34:48.029Z,995.45
2016-03-02T15:36:13.519Z,995.44
2016-03-02T15:36:57.504Z,995.51
2016-03-02T15:37:57.522Z,995.48
2016-03-02T15:39:07.103Z,995.5
2016-03-02T15:40:32.780Z,995.52
2016-03-02T15:41:42.657Z,995.53
2016-03-02T15:42:49.145Z,995.56
2016-03-02T15:44:01.866Z,995.56
2016-03-02T15:44:45.775Z,995.56
2016-03-02T15:45:45.778Z,995.56
2016-03-02T15:46:45.812Z,995.58
2016-03-02T15:47:45.830Z,995.55
2016-03-02T15:48:46.083Z,995.62
2016-03-02T15:49:45.867Z,995.58
2016-03-02T15:50:58.604Z,995.58
2016-03-02T15:51:45.919Z,995.59
2016-03-02T15:52:45.922Z,995.6
2016-03-02T15:53:45.972Z,995.65
2016-03-02T15:54:45.942Z,995.63
2016-03-02T15:55:45.961Z,995.58
2016-03-02T15:56:58.714Z,995.6
2016-03-02T15:57:45.998Z,995.57
2016-03-02T15:59:11.672Z,995.62
2016-03-02T15:59:58.581Z,995.61
2016-03-02T16:00:55.600Z,995.61
2016-03-02T16:01:55.586Z,995.64
2016-03-02T16:02:55.605Z,995.66
2016-03-02T16:03:55.842Z,995.67
2016-03-02T16:04:55.673Z,995.72
2016-03-02T16:05:55.644Z,995.76
2016-03-02T16:06:55.663Z,995.77
2016-03-02T16:07:55.712Z,995.75
2016-03-02T16:08:55.730Z,995.74
2016-03-02T16:09:55.718Z,995.76
2016-03-02T16:10:56.001Z,995.74
2016-03-02T16:11:55.770Z,995.74
2016-03-02T16:12:55.773Z,995.76
2016-03-02T16:13:55.901Z,995.75
2016-03-02T16:14:55.809Z,995.74
2016-03-02T16:15:55.874Z,995.67
2016-03-02T16:16:55.831Z,995.74
2016-03-02T16:17:55.864Z,995.7
2016-03-02T16:18:55.881Z,995.65
2016-03-02T16:19:56.042Z,995.65
2016-03-02T16:20:55.920Z,995.63
2016-03-02T16:21:55.922Z,995.64
2016-03-02T16:22:55.956Z,995.69
2016-03-02T16:23:55.974Z,995.68
2016-03-02T16:24:56.008Z,995.73
2016-03-02T16:26:08.791Z,995.71
2016-03-02T16:27:08.747Z,995.72
2016-03-02T16:27:56.031Z,995.75
2016-03-02T16:28:56.363Z,995.77
2016-03-02T16:29:56.286Z,995.76
2016-03-02T16:30:56.086Z,995.78
2016-03-02T16:31:56.105Z,995.81
2016-03-02T16:32:56.107Z,995.81
2016-03-02T16:33:56.188Z,995.77
2016-03-02T16:34:56.191Z,995.78
2016-03-02T16:35:56.460Z,995.75
2016-03-02T16:36:56.181Z,995.77
2016-03-02T16:37:56.215Z,995.75
2016-03-02T16:39:08.952Z,995.75
2016-03-02T16:39:56.407Z,995.76
2016-03-02T16:40:56.254Z,995.76
2016-03-02T16:41:56.366Z,995.77
2016-03-02T16:42:56.290Z,995.75
2016-03-02T16:43:56.340Z,995.77
2016-03-02T16:44:56.327Z,995.83
2016-03-02T16:45:56.346Z,995.8
2016-03-02T16:46:56.582Z,995.81
2016-03-02T16:47:56.601Z,995.83
2016-03-02T16:48:56.417Z,995.85
2016-03-02T16:49:56.419Z,995.84
2016-03-02T16:50:56.593Z,995.87
2016-03-02T16:52:02.706Z,995.83
2016-03-02T16:52:56.520Z,995.85
2016-03-02T16:53:56.461Z,995.89
2016-03-02T16:54:56.479Z,995.92
2016-03-02T16:55:56.498Z,995.95
2016-03-02T16:56:56.564Z,995.93
2016-03-02T16:57:56.534Z,995.94
2016-03-02T16:58:56.584Z,995.98
2016-03-02T16:59:56.603Z,996.02
2016-03-02T17:00:56.589Z,996.02
2016-03-02T17:01:56.826Z,996
2016-03-02T17:02:56.610Z,996.03
2016-03-02T17:03:56.628Z,996.02
2016-03-02T17:04:56.647Z,996.06
2016-03-02T17:05:56.665Z,996.08
2016-03-02T17:06:56.668Z,996.09
2016-03-02T17:07:56.702Z,996.1
2016-03-02T17:08:56.735Z,996.13
2016-03-02T17:09:56.724Z,996.14
2016-03-02T17:11:09.492Z,996.16
2016-03-02T17:11:56.759Z,996.2
2016-03-02T17:13:15.981Z,996.22
2016-03-02T17:14:03.046Z,996.18
2016-03-02T17:16:06.458Z,996.2
2016-03-02T17:18:16.229Z,996.28
2016-03-02T17:19:16.232Z,996.32
2016-03-02T17:20:25.875Z,996.33
2016-03-02T17:21:26.065Z,996.33
2016-03-02T17:22:25.849Z,996.32
2016-03-02T17:23:25.852Z,996.35
2016-03-02T17:24:25.886Z,996.36
2016-03-02T17:25:25.904Z,996.36
2016-03-02T17:26:25.907Z,996.4
2016-03-02T17:27:25.956Z,996.45
2016-03-02T17:28:25.943Z,996.44
2016-03-02T17:29:25.946Z,996.44
2016-03-02T17:30:25.965Z,996.47
2016-03-02T17:31:27.264Z,996.47
2016-03-02T17:32:26.001Z,996.52
2016-03-02T17:33:26.067Z,996.5
2016-03-02T17:34:26.038Z,996.52
2016-03-02T17:35:26.087Z,996.55
2016-03-02T17:36:26.075Z,996.54
2016-03-02T17:37:26.092Z,996.58
2016-03-02T17:38:38.832Z,996.59
2016-03-02T17:39:38.882Z,996.6
2016-03-02T17:40:26.132Z,996.63
2016-03-02T17:41:26.385Z,996.63
2016-03-02T17:42:26.199Z,996.64
2016-03-02T17:43:26.171Z,996.63
2016-03-02T17:44:26.182Z,996.61
2016-03-02T17:45:26.235Z,996.62
2016-03-02T17:46:26.618Z,996.62
2016-03-02T17:47:26.188Z,996.64
2016-03-02T17:48:26.226Z,996.6
2016-03-02T17:49:26.209Z,996.59
2016-03-02T17:50:26.254Z,996.62
2016-03-02T17:51:26.238Z,996.66
2016-03-02T17:52:39.221Z,996.64
2016-03-02T17:53:38.985Z,996.66
2016-03-02T17:54:51.972Z,996.68
2016-03-02T17:55:26.284Z,996.68
2016-03-02T17:56:26.301Z,996.7
2016-03-02T17:57:26.318Z,996.73
2016-03-02T17:58:26.319Z,996.72
2016-03-02T17:59:26.337Z,996.69
2016-03-02T18:00:26.356Z,996.73
2016-03-02T18:01:26.420Z,996.76
2016-03-02T18:02:26.375Z,996.74
2016-03-02T18:03:26.393Z,996.74
2016-03-02T18:04:26.426Z,996.73
2016-03-02T18:05:26.445Z,996.72
2016-03-02T18:06:26.478Z,996.68
2016-03-02T18:07:26.464Z,996.7
2016-03-02T18:08:26.467Z,996.69
2016-03-02T18:09:26.485Z,996.72
2016-03-02T18:10:26.504Z,996.75
2016-03-02T18:11:26.522Z,996.77
2016-03-02T18:12:26.541Z,996.77
2016-03-02T18:13:26.544Z,996.78
2016-03-02T18:14:26.858Z,996.77
2016-03-02T18:15:26.627Z,996.74
2016-03-02T18:16:26.660Z,996.78
2016-03-02T18:17:26.601Z,996.77
2016-03-02T18:18:26.619Z,996.72
2016-03-02T18:19:26.637Z,996.75
2016-03-02T18:20:26.656Z,996.77
2016-03-02T18:21:26.690Z,996.75
2016-03-02T18:22:26.693Z,996.7
2016-03-02T18:23:26.711Z,996.73
2016-03-02T18:24:26.728Z,996.75
2016-03-02T18:25:26.731Z,996.71
2016-03-02T18:26:26.750Z,996.66
2016-03-02T18:27:26.768Z,996.72
2016-03-02T18:28:26.787Z,996.71
2016-03-02T18:29:26.993Z,996.68
2016-03-02T18:30:26.808Z,996.66
2016-03-02T18:31:33.092Z,996.64
2016-03-02T18:32:26.844Z,996.62
2016-03-02T18:33:46.066Z,996.67
2016-03-02T18:34:26.880Z,996.64
2016-03-02T18:35:26.899Z,996.66
2016-03-02T18:36:26.902Z,996.61
2016-03-02T18:38:33.205Z,996.58
2016-03-02T18:39:26.972Z,996.59
2016-03-02T18:40:26.975Z,996.55
2016-03-02T18:41:26.977Z,996.58
2016-03-02T18:42:27.027Z,996.54
2016-03-02T18:43:39.749Z,996.53
2016-03-02T18:44:27.033Z,996.57
2016-03-02T18:45:27.052Z,996.56
2016-03-02T18:46:27.069Z,996.55
2016-03-02T18:47:27.072Z,996.55
2016-03-02T18:48:27.090Z,996.57
2016-03-02T18:49:27.093Z,996.58
2016-03-02T18:50:39.892Z,996.56
2016-03-02T18:51:27.129Z,996.55
2016-03-02T18:52:27.148Z,996.54
2016-03-02T18:53:27.150Z,996.53
2016-03-02T18:54:27.169Z,996.57
2016-03-02T18:55:27.203Z,996.55
2016-03-02T18:56:27.206Z,996.54
2016-03-02T18:57:27.239Z,996.5
2016-03-02T18:58:39.976Z,996.54
2016-03-02T18:59:27.244Z,996.5
2016-03-02T19:00:46.466Z,996.48
2016-03-02T19:01:27.281Z,996.49
2016-03-02T19:02:27.316Z,996.48
2016-03-02T19:03:27.319Z,996.48
2016-03-02T19:04:40.055Z,996.49
2016-03-02T19:05:27.370Z,996.48
2016-03-02T19:06:53.089Z,996.47
2016-03-02T19:07:37.339Z,996.47
2016-03-02T19:08:37.389Z,996.49
2016-03-02T19:09:37.345Z,996.49
2016-03-02T19:10:37.348Z,996.48
2016-03-02T19:11:46.897Z,996.47
2016-03-02T19:12:46.900Z,996.44
2016-03-02T19:13:46.919Z,996.46
2016-03-02T19:14:46.952Z,996.47
2016-03-02T19:15:46.971Z,996.46
2016-03-02T19:16:46.957Z,996.43
2016-03-02T19:17:46.960Z,996.43
2016-03-02T19:18:46.979Z,996.41
2016-03-02T19:19:47.013Z,996.45
2016-03-02T19:21:06.221Z,996.43
2016-03-02T19:21:47.049Z,996.43
2016-03-02T19:22:47.255Z,996.41
2016-03-02T19:23:57.026Z,996.4
2016-03-02T19:24:57.326Z,996.44
2016-03-02T19:25:57.032Z,996.38
2016-03-02T19:26:57.050Z,996.41
2016-03-02T19:27:57.381Z,996.4
2016-03-02T19:28:57.086Z,996.36
2016-03-02T19:29:57.121Z,996.37
2016-03-02T19:30:57.107Z,996.39
2016-03-02T19:31:57.142Z,996.37
2016-03-02T19:32:57.362Z,996.35
2016-03-02T19:33:57.162Z,996.32
2016-03-02T19:34:57.181Z,996.31
2016-03-02T19:35:57.183Z,996.28
2016-03-02T19:36:57.202Z,996.31
2016-03-02T19:37:57.283Z,996.32
2016-03-02T19:38:57.239Z,996.24
2016-03-02T19:39:57.256Z,996.26
2016-03-02T19:40:57.291Z,996.27
2016-03-02T19:41:57.294Z,996.23
2016-03-02T19:42:57.311Z,996.26
2016-03-02T19:43:57.564Z,996.26
2016-03-02T19:44:57.583Z,996.24
2016-03-02T19:45:57.367Z,996.27
2016-03-02T19:47:10.088Z,996.29
2016-03-02T19:47:57.371Z,996.28
2016-03-02T19:49:23.062Z,996.31
2016-03-02T19:50:07.346Z,996.32
2016-03-02T19:51:07.365Z,996.28
2016-03-02T19:52:07.383Z,996.27
2016-03-02T19:53:07.371Z,996.27
2016-03-02T19:54:07.388Z,996.27
2016-03-02T19:55:07.407Z,996.27
2016-03-02T19:56:07.424Z,996.26
2016-03-02T19:57:07.506Z,996.29
2016-03-02T19:58:08.086Z,996.25
2016-03-02T19:59:07.480Z,996.31
2016-03-02T20:00:07.482Z,996.33
2016-03-02T20:01:07.516Z,996.3
2016-03-02T20:02:07.612Z,996.28
2016-03-02T20:03:07.553Z,996.28
2016-03-02T20:04:07.556Z,996.25
2016-03-02T20:05:07.574Z,996.27
2016-03-02T20:06:07.592Z,996.24
2016-03-02T20:07:07.642Z,996.27
2016-03-02T20:08:07.676Z,996.26
2016-03-02T20:09:07.647Z,996.28
2016-03-02T20:10:07.650Z,996.24
2016-03-02T20:11:07.653Z,996.2
2016-03-02T20:12:07.671Z,996.21
2016-03-02T20:13:07.689Z,996.15
2016-03-02T20:14:07.691Z,996.19
2016-03-02T20:15:07.742Z,996.16
2016-03-02T20:16:07.916Z,996.19
2016-03-02T20:17:07.762Z,996.22
2016-03-02T20:18:14.047Z,996.25
2016-03-02T20:19:07.768Z,996.27
2016-03-02T20:20:07.786Z,996.24
2016-03-02T20:21:07.805Z,996.27
2016-03-02T20:22:07.807Z,996.27
2016-03-02T20:23:07.826Z,996.28
2016-03-02T20:24:07.860Z,996.36
2016-03-02T20:25:11.518Z,996.31
2016-03-02T20:26:37.224Z,996.32
2016-03-02T20:27:21.368Z,996.34
2016-03-02T20:28:31.121Z,996.33
2016-03-02T20:29:31.138Z,996.33
2016-03-02T20:30:31.187Z,996.36
2016-03-02T20:31:34.222Z,996.35
2016-03-02T20:32:31.210Z,996.33
2016-03-02T20:33:56.934Z,996.26
2016-03-02T20:34:41.199Z,996.27
2016-03-02T20:36:00.439Z,996.25
2016-03-02T20:36:41.236Z,996.28
2016-03-02T20:37:56.834Z,996.26
2016-03-02T20:38:56.853Z,996.24
2016-03-02T20:41:12.733Z,996.23
2016-03-02T20:42:12.705Z,996.26
2016-03-02T20:43:38.380Z,996.31
2016-03-02T20:44:22.538Z,996.29
2016-03-02T20:45:22.541Z,996.31
2016-03-02T20:48:03.518Z,996.33
2016-03-02T20:48:38.236Z,996.36
2016-03-02T20:51:18.869Z,996.39
2016-03-02T20:51:53.197Z,996.42
2016-03-02T20:54:03.080Z,996.43
2016-03-02T20:55:03.083Z,996.46
2016-03-02T20:56:18.352Z,996.49
2016-03-02T20:57:18.370Z,996.5
2016-03-02T20:58:18.357Z,996.52
2016-03-02T20:59:31.126Z,996.47
2016-03-02T21:00:18.394Z,996.49
2016-03-02T21:01:18.443Z,996.52
2016-03-02T21:02:18.431Z,996.53
2016-03-02T21:03:18.433Z,996.48
2016-03-02T21:04:18.670Z,996.51
2016-03-02T21:05:18.485Z,996.49
2016-03-02T21:06:31.222Z,996.47
2016-03-02T21:07:18.490Z,996.48
2016-03-02T21:08:37.729Z,996.49
2016-03-02T21:09:18.528Z,996.49
2016-03-02T21:10:44.218Z,996.49
2016-03-02T21:11:37.767Z,996.44
2016-03-02T21:13:40.929Z,996.47
2016-03-02T21:14:21.759Z,996.46
2016-03-02T21:15:50.575Z,996.45
2016-03-02T21:17:31.596Z,996.44
2016-03-02T21:19:47.039Z,996.35
2016-03-02T21:20:47.058Z,996.41
2016-03-02T21:21:47.060Z,996.41
2016-03-02T21:22:59.859Z,996.35
2016-03-02T21:23:59.846Z,996.38
2016-03-02T21:25:12.789Z,996.35
2016-03-02T21:26:06.371Z,996.35
2016-03-02T21:27:21.888Z,996.39
2016-03-02T21:28:21.907Z,996.4
2016-03-02T21:29:34.550Z,996.44
2016-03-02T21:30:22.443Z,996.48
2016-03-02T21:31:41.055Z,996.48
2016-03-02T21:32:21.870Z,996.48
2016-03-02T21:33:47.561Z,996.51
2016-03-02T21:34:31.454Z,996.52
2016-03-02T21:35:31.473Z,996.56
2016-03-02T21:38:46.684Z,996.55
2016-03-02T21:39:46.701Z,996.56
2016-03-02T21:40:59.454Z,996.53
2016-03-02T21:41:46.722Z,996.54
2016-03-02T21:43:05.947Z,996.56
2016-03-02T21:43:49.822Z,996.5
2016-03-02T21:45:09.047Z,996.49
2016-03-02T21:46:27.283Z,996.4
2016-03-02T21:47:24.270Z,996.41
2016-03-02T21:48:24.289Z,996.4
2016-03-02T21:49:24.291Z,996.4
2016-03-02T21:50:37.044Z,996.45
2016-03-02T21:51:24.313Z,996.44
2016-03-02T21:52:43.533Z,996.44
2016-03-02T21:53:27.428Z,996.45
2016-03-02T21:54:46.617Z,996.46
2016-03-02T21:56:01.823Z,996.42
2016-03-02T21:57:11.313Z,996.44
2016-03-02T21:59:12.755Z,996.46
2016-03-02T22:00:11.368Z,996.43
2016-03-02T22:01:20.902Z,996.45
2016-03-02T22:02:20.936Z,996.44
2016-03-02T22:03:27.204Z,996.45
2016-03-02T22:04:20.956Z,996.46
2016-03-02T22:05:20.976Z,996.44
2016-03-02T22:06:20.978Z,996.43
2016-03-02T22:07:21.011Z,996.35
2016-03-02T22:08:21.015Z,996.39
2016-03-02T22:09:21.017Z,996.31
2016-03-02T22:10:21.051Z,996.31
2016-03-02T22:11:21.054Z,996.33
2016-03-02T22:12:21.072Z,996.31
2016-03-02T22:13:21.090Z,996.36
2016-03-02T22:14:21.109Z,996.36
2016-03-02T22:15:21.127Z,996.35
2016-03-02T22:16:21.130Z,996.3
2016-03-02T22:17:21.148Z,996.32
2016-03-02T22:18:21.166Z,996.33
2016-03-02T22:19:21.169Z,996.32
2016-03-02T22:20:21.187Z,996.36
2016-03-02T22:21:21.206Z,996.35
2016-03-02T22:22:21.224Z,996.33
2016-03-02T22:23:21.242Z,996.38
2016-03-02T22:24:21.260Z,996.37
2016-03-02T22:25:21.263Z,996.45
2016-03-02T22:26:34.015Z,996.42
2016-03-02T22:27:21.285Z,996.44
2016-03-02T22:28:21.318Z,996.44
2016-03-02T22:29:21.321Z,996.39
2016-03-02T22:30:21.339Z,996.38
2016-03-02T22:31:34.091Z,996.4
2016-03-02T22:32:21.360Z,996.38
2016-03-02T22:33:21.394Z,996.39
2016-03-02T22:34:21.396Z,996.42
2016-03-02T22:35:21.399Z,996.4
2016-03-02T22:36:34.168Z,996.42
2016-03-02T22:37:21.437Z,996.38
2016-03-02T22:38:40.657Z,996.41
2016-03-02T22:39:21.473Z,996.41
2016-03-02T22:40:47.163Z,996.42
2016-03-02T22:41:27.759Z,996.42
2016-03-02T22:42:21.512Z,996.37
2016-03-02T22:43:34.265Z,996.35
2016-03-02T22:44:21.548Z,996.37
2016-03-02T22:45:21.568Z,996.42
2016-03-02T22:46:21.570Z,996.38
2016-03-02T22:47:40.791Z,996.4
2016-03-02T22:48:24.638Z,996.39
2016-03-02T22:49:50.328Z,996.44
2016-03-02T22:51:05.533Z,996.42
2016-03-02T22:52:24.742Z,996.41
2016-03-02T22:53:08.619Z,996.38
2016-03-02T22:54:08.701Z,996.38
2016-03-02T22:55:10.063Z,996.37
2016-03-02T22:57:23.897Z,996.34
2016-03-02T22:58:23.899Z,996.33
2016-03-02T22:59:23.902Z,996.35
2016-03-02T23:00:23.919Z,996.37
2016-03-02T23:01:36.672Z,996.32
2016-03-02T23:02:23.972Z,996.28
2016-03-02T23:03:49.647Z,996.26
2016-03-02T23:04:33.524Z,996.25
2016-03-02T23:05:59.230Z,996.26
2016-03-02T23:06:33.561Z,996.29
2016-03-02T23:07:33.580Z,996.25
2016-03-02T23:08:33.598Z,996.18
2016-03-02T23:09:33.600Z,996.19
2016-03-02T23:10:33.619Z,996.23
2016-03-02T23:11:46.356Z,996.23
2016-03-02T23:12:33.656Z,996.21
2016-03-02T23:13:52.862Z,996.15
2016-03-02T23:14:33.676Z,996.13
2016-03-02T23:15:59.366Z,996.15
2016-03-02T23:16:33.697Z,996.12
2016-03-02T23:18:43.906Z,996.11
2016-03-02T23:19:43.925Z,996.17
2016-03-02T23:20:43.928Z,996.12
2016-03-02T23:21:43.961Z,996.14
2016-03-02T23:22:43.964Z,996.1
2016-03-02T23:23:56.716Z,996.13
2016-03-02T23:24:43.984Z,996.1
2016-03-02T23:26:03.206Z,996.11
2016-03-02T23:26:44.630Z,996.08
2016-03-02T23:28:09.698Z,996.11
2016-03-02T23:28:53.557Z,996.12
2016-03-02T23:29:56.748Z,996.12
2016-03-02T23:31:06.564Z,996.13
2016-03-02T23:32:16.115Z,996.17
2016-03-02T23:33:16.196Z,996.15
2016-03-02T23:34:19.371Z,996.14
2016-03-02T23:35:19.389Z,996.14
2016-03-02T23:36:19.407Z,996.14
2016-03-02T23:39:34.604Z,996.19
2016-03-02T23:40:34.606Z,996.2
2016-03-02T23:41:47.374Z,996.16
2016-03-02T23:42:34.643Z,996.18
2016-03-02T23:43:53.895Z,996.13
2016-03-02T23:44:34.663Z,996.15
2016-03-02T23:46:44.825Z,996.12
2016-03-02T23:47:44.843Z,996.13
2016-03-02T23:49:00.049Z,996.13
2016-03-02T23:50:00.067Z,996.14
2016-03-02T23:51:12.807Z,996.12
2016-03-02T23:52:00.089Z,996.13
2016-03-02T23:53:25.781Z,996.12
2016-03-02T23:54:12.847Z,996.09
2016-03-02T23:56:33.867Z,996.11
2016-03-02T23:57:33.886Z,996.13
2016-03-02T23:58:33.888Z,996.09
2016-03-02T23:59:43.439Z,996.16
